createdAt,value
2022-12-04T00:01:51.984Z,28.92
2022-12-04T00:04:56.910Z,27.00
2022-12-04T00:08:01.922Z,29.95
2022-12-04T00:11:09.364Z,27.95
2022-12-04T00:14:14.321Z,28.13
2022-12-04T00:17:18.955Z,28.88
2022-12-04T00:20:23.969Z,29.15
2022-12-04T00:23:29.142Z,27.98
2022-12-04T00:26:34.624Z,28.35
2022-12-04T00:29:39.361Z,29.63
2022-12-04T00:32:44.181Z,23.55
2022-12-04T00:35:49.072Z,26.25
2022-12-04T00:38:54.956Z,25.17
2022-12-04T00:42:00.007Z,26.35
2022-12-04T00:45:05.389Z,29.02
2022-12-04T00:48:10.324Z,24.23
2022-12-04T00:51:22.465Z,22.77
2022-12-04T00:54:27.212Z,21.45
2022-12-04T00:57:32.486Z,21.83
2022-12-04T01:00:40.528Z,20.45
2022-12-04T01:03:46.321Z,21.38
2022-12-04T01:06:51.285Z,21.27
2022-12-04T01:09:56.353Z,20.42
2022-12-04T01:13:01.263Z,18.88
2022-12-04T01:16:06.378Z,21.17
2022-12-04T01:19:12.105Z,18.60
2022-12-04T01:22:16.933Z,20.20
2022-12-04T01:25:21.657Z,21.92
2022-12-04T01:28:26.769Z,22.70
2022-12-04T01:31:31.826Z,20.92
2022-12-04T01:34:36.852Z,15.70
2022-12-04T01:37:41.849Z,19.80
2022-12-04T01:40:46.841Z,19.83
2022-12-04T01:44:18.910Z,21.50
2022-12-04T01:47:24.339Z,21.08
2022-12-04T01:50:29.840Z,22.77
2022-12-04T01:53:38.165Z,21.35
2022-12-04T01:56:51.828Z,20.42
2022-12-04T02:00:06.387Z,22.33
2022-12-04T02:03:13.384Z,22.92
2022-12-04T02:06:18.661Z,20.98
2022-12-04T02:09:26.737Z,20.75
2022-12-04T02:13:08.013Z,14.80
2022-12-04T02:16:29.356Z,19.73
2022-12-04T02:20:04.888Z,23.98
2022-12-04T02:23:20.840Z,22.30
2022-12-04T02:27:06.295Z,22.98
2022-12-04T02:30:14.815Z,23.55
2022-12-04T02:33:30.005Z,22.48
2022-12-04T02:36:47.302Z,23.23
2022-12-04T02:40:02.148Z,23.45
2022-12-04T02:43:18.862Z,23.80
2022-12-04T02:46:39.058Z,21.95
2022-12-04T02:50:01.771Z,22.05
2022-12-04T02:53:18.171Z,22.60
2022-12-04T02:56:27.508Z,21.77
2022-12-04T02:59:38.481Z,21.40
2022-12-04T03:03:04.706Z,21.08
2022-12-04T03:06:11.560Z,26.20
2022-12-04T03:09:23.334Z,26.65
2022-12-04T03:13:19.093Z,27.38
2022-12-04T03:16:35.673Z,27.40
2022-12-04T03:19:46.395Z,26.83
2022-12-04T03:22:56.986Z,25.65
2022-12-04T03:26:01.661Z,26.48
2022-12-04T03:29:21.548Z,23.13
2022-12-04T03:32:34.846Z,25.38
2022-12-04T03:35:49.969Z,22.23
2022-12-04T03:39:17.679Z,17.67
2022-12-04T03:42:32.804Z,19.17
2022-12-04T03:46:12.695Z,19.80
2022-12-04T03:49:25.810Z,19.55
2022-12-04T03:52:45.153Z,19.08
2022-12-04T03:55:58.759Z,22.45
2022-12-04T03:59:10.112Z,18.55
2022-12-04T04:02:18.389Z,17.27
2022-12-04T04:05:24.213Z,22.65
2022-12-04T04:08:34.875Z,22.98
2022-12-04T04:11:51.226Z,22.55
2022-12-04T04:15:30.522Z,22.73
2022-12-04T04:18:54.386Z,21.25
2022-12-04T04:22:19.630Z,21.40
2022-12-04T04:25:25.994Z,22.25
2022-12-04T04:28:33.558Z,20.20
2022-12-04T04:32:15.141Z,20.77
2022-12-04T04:35:36.151Z,19.77
2022-12-04T04:38:49.139Z,19.20
2022-12-04T04:42:20.698Z,21.00
2022-12-04T04:45:39.536Z,22.13
2022-12-04T04:48:49.237Z,21.60
2022-12-04T04:51:54.637Z,21.05
2022-12-04T04:55:00.595Z,20.00
2022-12-04T04:58:23.695Z,20.30
2022-12-04T05:01:28.987Z,20.20
2022-12-04T05:04:33.788Z,21.55
2022-12-04T05:07:38.925Z,21.17
2022-12-04T05:10:43.876Z,22.45
2022-12-04T05:13:48.649Z,22.73
2022-12-04T05:16:53.892Z,23.15
2022-12-04T05:19:58.543Z,23.48
2022-12-04T05:23:03.585Z,22.05
2022-12-04T05:26:08.687Z,22.42
2022-12-04T05:29:13.892Z,23.33
2022-12-04T05:32:18.910Z,23.45
2022-12-04T05:35:23.904Z,23.35
2022-12-04T05:38:28.801Z,23.13
2022-12-04T05:41:33.665Z,22.42
2022-12-04T05:44:38.622Z,22.35
2022-12-04T05:47:45.463Z,21.52
2022-12-04T05:50:50.415Z,20.13
2022-12-04T05:53:55.458Z,21.55
2022-12-04T05:57:00.598Z,22.33
2022-12-04T06:00:06.165Z,22.85
2022-12-04T06:03:16.241Z,23.20
2022-12-04T06:06:23.584Z,22.63
2022-12-04T06:09:28.691Z,22.27
2022-12-04T06:12:33.659Z,22.23
2022-12-04T06:15:40.395Z,25.42
2022-12-04T06:18:48.701Z,24.38
2022-12-04T06:21:54.532Z,23.55
2022-12-04T06:24:59.589Z,22.77
2022-12-04T06:28:04.555Z,22.90
2022-12-04T06:31:13.375Z,21.75
2022-12-04T06:34:18.812Z,22.48
2022-12-04T06:37:25.372Z,21.42
2022-12-04T06:40:30.494Z,22.33
2022-12-04T06:43:35.399Z,19.80
2022-12-04T06:46:45.102Z,21.58
2022-12-04T06:49:52.022Z,20.08
2022-12-04T06:52:56.845Z,19.20
2022-12-04T06:56:05.469Z,21.25
2022-12-04T06:59:10.742Z,20.08
2022-12-04T07:02:15.737Z,17.52
2022-12-04T07:05:20.515Z,17.33
2022-12-04T07:08:25.499Z,16.50
2022-12-04T07:11:30.898Z,16.05
2022-12-04T07:14:35.975Z,21.27
2022-12-04T07:17:41.667Z,21.52
2022-12-04T07:20:46.371Z,19.55
2022-12-04T07:23:53.893Z,17.08
2022-12-04T07:26:58.739Z,15.95
2022-12-04T07:30:08.883Z,16.88
2022-12-04T07:33:17.220Z,16.10
2022-12-04T07:36:23.432Z,17.00
2022-12-04T07:39:28.862Z,17.00
2022-12-04T07:42:33.821Z,16.75
2022-12-04T07:45:39.366Z,18.05
2022-12-04T07:48:44.272Z,41.28
2022-12-04T07:51:49.370Z,23.63
2022-12-04T07:54:54.311Z,16.95
2022-12-04T07:58:00.030Z,17.75
2022-12-04T08:01:11.413Z,24.15
2022-12-04T08:04:16.302Z,27.77
2022-12-04T08:07:21.228Z,34.47
2022-12-04T08:10:25.864Z,28.58
2022-12-04T08:13:30.961Z,24.80
2022-12-04T08:16:35.951Z,24.08
2022-12-04T08:19:40.963Z,25.65
2022-12-04T08:22:45.621Z,35.72
2022-12-04T08:25:50.474Z,28.20
2022-12-04T08:28:56.849Z,25.00
2022-12-04T08:32:01.754Z,24.15
2022-12-04T08:35:07.141Z,22.98
2022-12-04T08:38:11.939Z,22.70
2022-12-04T08:41:21.264Z,17.42
2022-12-04T08:44:26.165Z,15.55
2022-12-04T08:47:30.889Z,16.27
2022-12-04T08:50:35.878Z,17.98
2022-12-04T08:53:40.747Z,15.13
2022-12-04T08:56:45.829Z,18.20
2022-12-04T08:59:51.082Z,17.52
2022-12-04T09:02:56.001Z,23.50
2022-12-04T09:06:01.965Z,26.58
2022-12-04T09:09:06.605Z,25.15
2022-12-04T09:12:11.328Z,25.08
2022-12-04T09:15:16.516Z,25.85
2022-12-04T09:18:21.855Z,24.13
2022-12-04T09:21:27.032Z,24.98
2022-12-04T09:24:31.931Z,24.67
2022-12-04T09:27:37.656Z,26.33
2022-12-04T09:30:42.768Z,25.55
2022-12-04T09:33:48.438Z,32.97
2022-12-04T09:36:53.529Z,29.88
2022-12-04T09:39:58.588Z,33.25
2022-12-04T09:43:31.165Z,28.35
2022-12-04T09:46:40.505Z,27.27
2022-12-04T09:50:20.991Z,29.20
2022-12-04T09:53:53.396Z,34.63
2022-12-04T09:57:24.149Z,30.27
2022-12-04T10:00:31.794Z,30.77
2022-12-04T10:03:36.916Z,31.48
2022-12-04T10:06:55.031Z,30.05
2022-12-04T10:10:13.968Z,19.05
2022-12-04T10:13:51.071Z,17.23
2022-12-04T10:17:31.004Z,16.33
2022-12-04T10:20:56.383Z,16.88
2022-12-04T10:24:32.110Z,26.05
2022-12-04T10:27:44.113Z,26.98
2022-12-04T10:30:50.960Z,22.20
2022-12-04T10:34:06.202Z,23.98
2022-12-04T10:37:14.227Z,24.83
2022-12-04T10:40:25.596Z,23.15
2022-12-04T10:43:45.479Z,25.50
2022-12-04T10:46:55.658Z,24.67
2022-12-04T10:50:16.475Z,26.02
2022-12-04T10:53:31.595Z,26.23
2022-12-04T10:56:36.529Z,25.98
2022-12-04T10:59:57.450Z,26.13
2022-12-04T11:03:10.533Z,24.67
2022-12-04T11:06:15.488Z,25.42
2022-12-04T11:09:24.516Z,25.20
2022-12-04T11:12:30.427Z,21.90
2022-12-04T11:15:46.239Z,22.83
2022-12-04T11:18:51.200Z,24.13
2022-12-04T11:22:10.139Z,22.20
2022-12-04T11:25:19.679Z,22.20
2022-12-04T11:28:46.125Z,22.13
2022-12-04T11:31:53.269Z,16.20
2022-12-04T11:35:26.832Z,16.98
2022-12-04T11:38:34.605Z,16.52
2022-12-04T11:41:40.305Z,16.50
2022-12-04T11:45:18.850Z,17.35
2022-12-04T11:48:24.335Z,21.30
2022-12-04T11:51:42.810Z,25.42
2022-12-04T11:55:22.316Z,23.23
2022-12-04T11:58:54.190Z,25.17
2022-12-04T12:02:20.302Z,23.23
2022-12-04T12:05:49.590Z,22.20
2022-12-04T12:09:18.789Z,23.42
2022-12-04T12:12:56.285Z,21.30
2022-12-04T12:16:19.210Z,22.95
2022-12-04T12:19:39.475Z,21.95
2022-12-04T12:23:12.220Z,24.08
2022-12-04T12:26:19.020Z,21.88
2022-12-04T12:29:35.511Z,18.70
2022-12-04T12:33:12.339Z,16.05
2022-12-04T12:36:21.503Z,25.38
2022-12-04T12:40:04.311Z,22.38
2022-12-04T12:43:21.258Z,21.33
2022-12-04T12:46:43.589Z,22.30
2022-12-04T12:50:06.595Z,17.45
2022-12-04T12:53:21.914Z,19.80
2022-12-04T12:56:44.676Z,22.70
2022-12-04T12:59:59.747Z,20.20
2022-12-04T13:03:39.942Z,18.73
2022-12-04T13:06:54.246Z,18.85
2022-12-04T13:10:21.770Z,16.60
2022-12-04T13:13:46.297Z,15.35
2022-12-04T13:16:59.981Z,15.75
2022-12-04T13:20:17.138Z,21.73
2022-12-04T13:23:44.923Z,15.15
2022-12-04T13:27:09.663Z,16.50
2022-12-04T13:30:40.132Z,14.48
2022-12-04T13:33:48.258Z,14.60
2022-12-04T13:37:09.290Z,15.77
2022-12-04T13:40:34.433Z,17.30
2022-12-04T13:43:49.543Z,14.98
2022-12-04T13:46:59.894Z,14.40
2022-12-04T13:50:19.699Z,13.88
2022-12-04T13:53:40.642Z,13.70
2022-12-04T13:56:51.131Z,15.30
2022-12-04T14:00:24.475Z,13.85
2022-12-04T14:03:49.512Z,13.75
2022-12-04T14:06:57.135Z,13.82
2022-12-04T14:10:22.331Z,13.73
2022-12-04T14:13:52.638Z,13.88
2022-12-04T14:16:58.929Z,13.80
2022-12-04T14:20:24.754Z,13.93
2022-12-04T14:23:39.769Z,13.70
2022-12-04T14:30:34.854Z,13.25
2022-12-04T14:33:45.508Z,13.98
2022-12-04T14:36:52.693Z,13.85
2022-12-04T14:39:58.729Z,14.07
2022-12-04T14:43:04.648Z,14.38
2022-12-04T14:46:24.727Z,14.52
2022-12-04T14:50:13.045Z,13.88
2022-12-04T14:53:44.779Z,14.13
2022-12-04T14:57:15.039Z,14.07
2022-12-04T15:00:22.789Z,13.95
2022-12-04T15:03:31.688Z,14.82
2022-12-04T15:06:39.267Z,13.95
2022-12-04T15:10:20.079Z,15.25
2022-12-04T15:13:34.813Z,14.80
2022-12-04T15:16:40.369Z,15.13
2022-12-04T15:19:46.083Z,14.60
2022-12-04T15:22:51.129Z,15.10
2022-12-04T15:25:58.666Z,14.77
2022-12-04T15:29:05.675Z,15.50
2022-12-04T15:32:11.948Z,16.02
2022-12-04T15:35:27.399Z,16.05
2022-12-04T15:38:32.575Z,16.58
2022-12-04T15:41:37.915Z,16.42
2022-12-04T15:45:03.589Z,15.38
2022-12-04T15:48:09.595Z,17.17
2022-12-04T15:51:15.972Z,16.88
2022-12-04T15:54:25.604Z,17.30
2022-12-04T15:57:37.127Z,16.27
2022-12-04T16:00:42.994Z,16.10
2022-12-04T16:03:51.403Z,17.25
2022-12-04T16:06:56.604Z,16.90
2022-12-04T16:10:29.359Z,17.73
2022-12-04T16:13:37.822Z,18.13
2022-12-04T16:16:50.730Z,21.80
2022-12-04T16:19:55.942Z,22.08
2022-12-04T16:23:00.910Z,19.60
2022-12-04T16:26:14.596Z,20.00
2022-12-04T16:29:19.744Z,19.70
2022-12-04T16:32:31.803Z,22.05
2022-12-04T16:35:37.237Z,20.50
2022-12-04T16:38:42.596Z,18.35
2022-12-04T16:41:47.508Z,17.48
2022-12-04T16:44:52.967Z,18.42
2022-12-04T16:48:00.712Z,17.88
2022-12-04T16:51:05.608Z,17.65
2022-12-04T16:54:12.383Z,19.05
2022-12-04T16:57:16.933Z,17.75
2022-12-04T17:00:21.782Z,18.75
2022-12-04T17:03:30.046Z,17.45
2022-12-04T17:06:35.292Z,17.80
2022-12-04T17:09:40.203Z,17.05
2022-12-04T17:12:45.459Z,17.05
2022-12-04T17:15:50.079Z,16.23
2022-12-04T17:18:54.907Z,30.02
2022-12-04T17:22:01.212Z,17.42
2022-12-04T17:25:06.968Z,16.30
2022-12-04T17:28:11.880Z,17.90
2022-12-04T17:31:24.040Z,22.25
2022-12-04T17:34:30.128Z,17.73
2022-12-04T17:37:36.128Z,18.40
2022-12-04T17:40:40.994Z,17.77
2022-12-04T17:43:46.146Z,18.58
2022-12-04T17:46:51.950Z,18.67
2022-12-04T17:49:57.141Z,17.73
2022-12-04T17:53:02.057Z,23.13
2022-12-04T17:56:17.397Z,16.88
2022-12-04T17:59:22.760Z,18.27
2022-12-04T18:02:28.185Z,18.40
2022-12-04T18:05:32.978Z,19.60
2022-12-04T18:08:38.046Z,16.70
2022-12-04T18:11:45.882Z,20.15
2022-12-04T18:14:51.274Z,19.90
2022-12-04T18:17:56.466Z,18.80
2022-12-04T18:21:09.321Z,17.50
2022-12-04T18:24:14.972Z,18.77
2022-12-04T18:27:19.847Z,17.20
2022-12-04T18:30:24.789Z,19.00
2022-12-04T18:33:34.396Z,18.38
2022-12-04T18:36:40.782Z,18.63
2022-12-04T18:39:45.846Z,18.20
2022-12-04T18:42:50.747Z,19.58
2022-12-04T18:46:07.688Z,21.30
2022-12-04T18:49:13.845Z,18.88
2022-12-04T18:52:18.824Z,19.60
2022-12-04T18:55:23.760Z,18.98
2022-12-04T18:58:28.996Z,18.52
2022-12-04T19:01:33.942Z,18.13
2022-12-04T19:04:38.690Z,18.33
2022-12-04T19:07:43.718Z,17.83
2022-12-04T19:10:48.957Z,19.35
2022-12-04T19:13:53.977Z,16.33
2022-12-04T19:16:58.917Z,17.40
2022-12-04T19:20:04.160Z,18.23
2022-12-04T19:23:08.936Z,17.92
2022-12-04T19:26:13.846Z,18.23
2022-12-04T19:29:18.681Z,16.60
2022-12-04T19:32:24.396Z,19.15
2022-12-04T19:35:29.771Z,18.10
2022-12-04T19:38:34.678Z,27.48
2022-12-04T19:41:41.275Z,21.92
2022-12-04T19:44:48.845Z,32.40
2022-12-04T19:47:54.539Z,20.00
2022-12-04T19:51:09.054Z,18.83
2022-12-04T19:54:14.260Z,18.90
2022-12-04T19:57:19.164Z,17.02
2022-12-04T20:00:24.783Z,19.17
2022-12-04T20:03:30.194Z,16.85
2022-12-04T20:06:38.984Z,17.55
2022-12-04T20:09:58.081Z,16.60
2022-12-04T20:13:05.688Z,22.23
2022-12-04T20:16:14.899Z,17.02
2022-12-04T20:19:21.122Z,15.93
2022-12-04T20:22:26.030Z,18.33
2022-12-04T20:25:31.290Z,18.13
2022-12-04T20:28:37.081Z,25.48
2022-12-04T20:31:45.547Z,17.30
2022-12-04T20:34:50.631Z,18.25
2022-12-04T20:37:55.500Z,17.08
2022-12-04T20:41:08.244Z,16.20
2022-12-04T20:44:15.883Z,22.27
2022-12-04T20:47:22.073Z,15.77
2022-12-04T20:50:27.502Z,19.67
2022-12-04T20:53:32.462Z,17.20
2022-12-04T20:56:38.401Z,54.67
2022-12-04T20:59:43.602Z,18.88
2022-12-04T21:02:48.439Z,22.67
2022-12-04T21:05:54.449Z,17.15
2022-12-04T21:09:01.854Z,15.90
2022-12-04T21:12:29.438Z,17.63
2022-12-04T21:15:54.065Z,16.92
2022-12-04T21:18:59.177Z,17.63
2022-12-04T21:22:04.100Z,16.33
2022-12-04T21:25:10.113Z,16.33
2022-12-04T21:28:15.022Z,15.85
2022-12-04T21:31:20.217Z,16.83
2022-12-04T21:34:24.931Z,14.65
2022-12-04T21:37:29.779Z,16.00
2022-12-04T21:40:41.982Z,16.90
2022-12-04T21:43:47.453Z,22.50
2022-12-04T21:46:52.160Z,16.23
2022-12-04T21:49:57.379Z,15.80
2022-12-04T21:53:02.665Z,15.52
2022-12-04T21:56:07.779Z,16.27
2022-12-04T21:59:14.039Z,18.58
2022-12-04T22:02:19.710Z,16.35
2022-12-04T22:05:24.887Z,16.33
2022-12-04T22:08:29.590Z,19.50
2022-12-04T22:11:34.609Z,24.10
2022-12-04T22:14:39.385Z,16.42
2022-12-04T22:17:44.215Z,15.27
2022-12-04T22:20:49.111Z,17.70
2022-12-04T22:23:59.573Z,16.42
2022-12-04T22:27:04.859Z,17.70
2022-12-04T22:30:10.138Z,17.17
2022-12-04T22:33:14.837Z,17.70
2022-12-04T22:36:23.650Z,14.38
2022-12-04T22:39:28.388Z,15.10
2022-12-04T22:42:33.317Z,15.05
2022-12-04T22:45:38.232Z,18.65
2022-12-04T22:48:44.828Z,15.55
2022-12-04T22:51:49.870Z,16.45
2022-12-04T22:54:54.742Z,14.43
2022-12-04T22:57:59.608Z,15.52
2022-12-04T23:01:19.615Z,16.05
2022-12-04T23:04:24.470Z,15.10
2022-12-04T23:07:29.480Z,15.98
2022-12-04T23:10:38.184Z,16.38
2022-12-04T23:13:43.290Z,15.85
2022-12-04T23:16:48.667Z,17.08
2022-12-04T23:19:53.541Z,16.70
2022-12-04T23:22:59.265Z,15.65
2022-12-04T23:26:06.439Z,18.15
2022-12-04T23:29:36.951Z,16.38
2022-12-04T23:32:36.287Z,16.42
2022-12-04T23:35:41.195Z,14.68
2022-12-04T23:38:46.219Z,15.98
2022-12-04T23:41:51.251Z,16.63
2022-12-04T23:44:56.411Z,15.32
2022-12-04T23:48:01.276Z,15.20
2022-12-04T23:51:07.176Z,18.05
2022-12-04T23:54:11.628Z,17.08
2022-12-04T23:57:16.341Z,15.93
